Impacts TAF Board INFO
FOR SITUATIONAL AWARENESS. NOT TO BE USED FOR FLIGHT PLANNING PURPOSES.
IDs:

KSAN - San Diego Intl Arpt, CA, US

Issued at 1739 UTC 18 Feb 2018
Updated at 1807 UTC 18 Feb 2018
Potential Impact None Slight Moderate High
Time1751Z 18/19Z 18/20Z 18/21Z 18/22Z 18/23Z 19/00Z 19/01Z 19/02Z 19/03Z 19/04Z 19/05Z 19/06Z 19/07Z>>
Type OBS PRVL PRVL PRVL PRVL PRVL PRVL PRVL PRVL PRVL PRVL PRVL PRVL PRVL
VIS 10 >6 >6 >6 >6 >6 >6 >6 >6 >6 >6 >6 >6 >6
CIG 60 250 -- -- -- -- -- -- -- -- -- -- 20 20
Cover BKN BKN SCT SCT SCT SCT SCT SCT SCT SCT SCT SCT OVC OVC
FltCat VFR VFR VFR VFR VFR VFR VFR VFR VFR VFR VFR VFR MVFR MVFR
WX -- -- -- -- -- -- -- -- -- -- -- -- VCSH VCSH
WDir 330 VRB 250 250 250 250 250 250 250 230 230 230 250 250
WSpd 4 4 10 10 10 10 10 10 10 7 7 7 10 10
WGst -- -- -- -- -- -- -- -- -- -- -- -- -- --

Raw TAF
KSAN 181739Z 1818/1924 VRB04KT P6SM SCT060 BKN250
  FM182000 25010KT P6SM SCT015 SCT250
  FM190300 23007KT P6SM SCT020
  FM190600 25010KT P6SM VCSH BKN020 OVC035
  FM190900 25015G25KT P6SM VCSH BKN025 BKN035
  FM191400 29020G28KT P6SM BKN035


Raw METAR
KSAN 181751Z 33004KT 10SM BKN060 BKN250 18/12 A3003 RMK AO2 SLP167 T01780122 10183 20117 51004
KSAN 181651Z 00000KT 10SM SCT060 BKN250 17/09 A3003 RMK AO2 SLP167 T01670089
KSAN 181551Z 00000KT 10SM FEW007 SCT060 BKN250 14/02 A3002 RMK AO2 SLP166 T01440022
KSAN 181538Z 00000KT 10SM FEW007 BKN060 BKN250 14/02 A3002 RMK AO2 T01390017

METAR Board
Radar Display
Forecast Discussion

FOR SITUATIONAL AWARENESS. NOT TO BE USED FOR FLIGHT PLANNING PURPOSES.